createdAt,value
2019-02-03T00:01:49.461Z,965.85
2019-02-03T00:02:49.695Z,965.83
2019-02-03T00:04:53.842Z,965.86
2019-02-03T00:05:54.076Z,965.88
2019-02-03T00:07:58.235Z,965.92
2019-02-03T00:08:58.467Z,965.90
2019-02-03T00:11:02.610Z,965.96
2019-02-03T00:12:02.843Z,965.95
2019-02-03T00:14:07.005Z,966.03
2019-02-03T00:15:07.238Z,966.07
2019-02-03T00:17:00.331Z,966.07
2019-02-03T00:18:00.568Z,966.15
2019-02-03T00:20:04.703Z,966.20
2019-02-03T00:21:04.938Z,966.18
2019-02-03T00:23:09.100Z,966.28
2019-02-03T00:24:09.334Z,966.35
2019-02-03T00:26:13.478Z,966.39
2019-02-03T00:27:13.711Z,966.41
2019-02-03T00:29:17.876Z,966.46
2019-02-03T00:30:18.107Z,966.46
2019-02-03T00:32:22.269Z,966.55
2019-02-03T00:33:22.503Z,966.57
2019-02-03T00:35:26.643Z,966.63
2019-02-03T00:36:26.876Z,966.64
2019-02-03T00:38:31.090Z,966.64
2019-02-03T00:39:31.300Z,966.65
2019-02-03T00:41:35.460Z,966.64
2019-02-03T00:42:35.649Z,966.68
2019-02-03T00:44:39.808Z,966.67
2019-02-03T00:45:40.040Z,966.71
2019-02-03T00:47:44.205Z,966.67
2019-02-03T00:48:44.441Z,966.68
2019-02-03T00:50:48.582Z,966.67
2019-02-03T00:51:48.819Z,966.70
2019-02-03T00:53:52.980Z,966.68
2019-02-03T00:54:53.214Z,966.69
2019-02-03T00:56:46.289Z,966.73
2019-02-03T00:57:46.524Z,966.71
2019-02-03T00:59:50.691Z,966.74
2019-02-03T01:00:50.923Z,966.74
2019-02-03T01:02:55.084Z,966.78
2019-02-03T01:03:55.323Z,966.79
2019-02-03T01:05:59.463Z,966.76
2019-02-03T01:06:59.697Z,966.76
2019-02-03T01:09:03.871Z,966.76
2019-02-03T01:10:04.093Z,966.78
2019-02-03T01:12:08.234Z,966.88
2019-02-03T01:13:08.466Z,966.98
2019-02-03T01:15:12.660Z,967.03
2019-02-03T01:16:12.899Z,967.03
2019-02-03T01:18:17.061Z,967.07
2019-02-03T01:19:17.296Z,967.10
2019-02-03T01:21:21.437Z,967.10
2019-02-03T01:22:21.671Z,967.10
2019-02-03T01:24:25.836Z,967.17
2019-02-03T01:25:26.071Z,967.18
2019-02-03T01:27:30.210Z,967.21
2019-02-03T01:28:30.444Z,967.16
2019-02-03T01:30:34.605Z,967.18
2019-02-03T01:31:34.841Z,967.18
2019-02-03T01:33:39.001Z,967.18
2019-02-03T01:34:39.234Z,967.17
2019-02-03T01:36:32.301Z,967.24
2019-02-03T01:37:39.416Z,967.31
2019-02-03T01:39:36.699Z,967.38
2019-02-03T01:40:36.930Z,967.37
2019-02-03T01:42:41.068Z,967.43
2019-02-03T01:43:41.304Z,967.45
2019-02-03T01:45:45.464Z,967.44
2019-02-03T01:46:45.701Z,967.50
2019-02-03T01:48:49.863Z,967.45
2019-02-03T01:49:50.096Z,967.42
2019-02-03T01:51:54.236Z,967.41
2019-02-03T01:52:54.469Z,967.35
2019-02-03T01:54:58.629Z,967.35
2019-02-03T01:55:58.866Z,967.36
2019-02-03T01:58:03.007Z,967.40
2019-02-03T01:59:03.242Z,967.40
2019-02-03T02:01:07.404Z,967.42
2019-02-03T02:02:07.636Z,967.44
2019-02-03T02:04:11.799Z,967.46
2019-02-03T02:05:12.035Z,967.44
2019-02-03T02:07:05.105Z,967.46
2019-02-03T02:08:05.339Z,967.43
2019-02-03T02:10:09.500Z,967.36
2019-02-03T02:11:09.734Z,967.33
2019-02-03T02:13:13.872Z,967.26
2019-02-03T02:14:14.110Z,967.16
2019-02-03T02:16:18.265Z,967.03
2019-02-03T02:17:18.501Z,967.00
2019-02-03T02:19:22.664Z,966.96
2019-02-03T02:20:23.010Z,966.94
2019-02-03T02:22:27.042Z,967.02
2019-02-03T02:23:27.272Z,967.07
2019-02-03T02:25:31.434Z,967.19
2019-02-03T02:26:31.669Z,967.23
2019-02-03T02:28:35.804Z,967.37
2019-02-03T02:29:36.037Z,967.40
2019-02-03T02:31:40.205Z,967.54
2019-02-03T02:32:40.430Z,967.57
2019-02-03T02:34:44.596Z,967.69
2019-02-03T02:35:44.828Z,967.71
2019-02-03T02:37:49.023Z,967.82
2019-02-03T02:38:49.208Z,967.83
2019-02-03T02:40:53.372Z,967.93
2019-02-03T02:41:53.606Z,968.00
2019-02-03T02:43:57.755Z,968.01
2019-02-03T02:44:57.989Z,968.04
2019-02-03T02:46:51.087Z,968.09
2019-02-03T02:47:51.323Z,968.11
2019-02-03T02:49:55.489Z,968.11
2019-02-03T02:50:55.729Z,968.15
2019-02-03T02:52:59.876Z,968.18
2019-02-03T02:54:00.112Z,968.20
2019-02-03T02:56:04.282Z,968.18
2019-02-03T02:57:04.515Z,968.21
2019-02-03T02:59:08.666Z,968.19
2019-02-03T03:00:08.898Z,968.24
2019-02-03T03:02:13.065Z,968.27
2019-02-03T03:03:13.302Z,968.30
2019-02-03T03:05:17.619Z,968.37
2019-02-03T03:06:17.702Z,968.36
2019-02-03T03:08:21.847Z,968.39
2019-02-03T03:09:22.090Z,968.42
2019-02-03T03:11:26.258Z,968.35
2019-02-03T03:12:26.492Z,968.39
2019-02-03T03:14:30.635Z,968.47
2019-02-03T03:15:30.874Z,968.45
2019-02-03T03:17:35.037Z,968.49
2019-02-03T03:18:35.269Z,968.54
2019-02-03T03:20:39.433Z,968.63
2019-02-03T03:21:39.683Z,968.56
2019-02-03T03:23:43.812Z,968.57
2019-02-03T03:24:44.082Z,968.58
2019-02-03T03:26:37.128Z,968.65
2019-02-03T03:27:37.362Z,968.66
2019-02-03T03:29:41.507Z,968.72
2019-02-03T03:30:41.751Z,968.72
2019-02-03T03:32:45.907Z,968.70
2019-02-03T03:33:46.135Z,968.66
2019-02-03T03:35:50.300Z,968.66
2019-02-03T03:36:50.533Z,968.63
2019-02-03T03:38:54.677Z,968.68
2019-02-03T03:39:54.906Z,968.77
2019-02-03T03:41:59.073Z,968.83
2019-02-03T03:42:59.302Z,968.84
2019-02-03T03:45:03.443Z,968.86
2019-02-03T03:46:06.455Z,968.85
2019-02-03T03:48:07.854Z,968.92
2019-02-03T03:49:08.066Z,968.93
2019-02-03T03:51:12.228Z,968.94
2019-02-03T03:52:12.496Z,968.91
2019-02-03T03:54:16.602Z,968.87
2019-02-03T03:55:16.835Z,968.94
2019-02-03T03:57:09.928Z,968.96
2019-02-03T03:58:10.161Z,968.94
2019-02-03T04:00:14.298Z,968.94
2019-02-03T04:01:14.533Z,968.98
2019-02-03T04:03:18.695Z,969.01
2019-02-03T04:04:18.929Z,968.95
2019-02-03T04:06:23.088Z,968.98
2019-02-03T04:07:23.322Z,969.03
2019-02-03T04:09:27.464Z,968.94
2019-02-03T04:10:27.697Z,968.98
2019-02-03T04:12:31.856Z,969.03
2019-02-03T04:13:32.087Z,969.05
2019-02-03T04:15:36.232Z,969.06
2019-02-03T04:16:36.465Z,969.06
2019-02-03T04:18:40.632Z,969.07
2019-02-03T04:19:40.864Z,969.05
2019-02-03T04:21:45.095Z,969.05
2019-02-03T04:22:45.260Z,969.10
2019-02-03T04:24:49.405Z,969.09
2019-02-03T04:25:49.637Z,969.07
2019-02-03T04:27:53.813Z,969.12
2019-02-03T04:28:54.031Z,969.16
2019-02-03T04:30:58.168Z,969.21
2019-02-03T04:31:58.404Z,969.24
2019-02-03T04:34:02.569Z,969.25
2019-02-03T04:35:02.803Z,969.26
2019-02-03T04:36:55.899Z,969.25
2019-02-03T04:37:56.132Z,969.24
2019-02-03T04:40:00.638Z,969.29
2019-02-03T04:41:00.505Z,969.28
2019-02-03T04:43:04.670Z,969.34
2019-02-03T04:44:04.902Z,969.19
2019-02-03T04:46:09.041Z,969.27
2019-02-03T04:47:09.274Z,969.28
2019-02-03T04:49:13.436Z,969.28
2019-02-03T04:50:13.666Z,969.34
2019-02-03T04:52:17.833Z,969.42
2019-02-03T04:53:18.063Z,969.41
2019-02-03T04:55:22.198Z,969.44
2019-02-03T04:56:22.470Z,969.50
2019-02-03T04:58:26.592Z,969.48
2019-02-03T04:59:26.826Z,969.58
2019-02-03T05:01:30.964Z,969.57
2019-02-03T05:02:31.198Z,969.62
2019-02-03T05:04:35.363Z,969.58
2019-02-03T05:05:35.602Z,969.46
2019-02-03T05:07:39.768Z,969.65
2019-02-03T05:08:40.000Z,969.52
2019-02-03T05:10:44.140Z,969.49
2019-02-03T05:11:44.372Z,969.67
2019-02-03T05:13:48.538Z,969.70
2019-02-03T05:14:48.766Z,969.69
2019-02-03T05:16:41.833Z,969.57
2019-02-03T05:17:42.068Z,969.59
2019-02-03T05:19:46.226Z,969.53
2019-02-03T05:20:46.457Z,969.64
2019-02-03T05:22:50.623Z,969.56
2019-02-03T05:23:50.855Z,969.61
2019-02-03T05:25:55.015Z,969.57
2019-02-03T05:26:55.225Z,969.65
2019-02-03T05:28:59.389Z,969.68
2019-02-03T05:29:59.616Z,969.68
2019-02-03T05:32:03.759Z,969.67
2019-02-03T05:33:03.990Z,969.61
2019-02-03T05:35:08.150Z,969.74
2019-02-03T05:36:08.381Z,969.73
2019-02-03T05:38:12.546Z,969.76
2019-02-03T05:39:24.387Z,969.81
2019-02-03T05:41:16.916Z,969.80
2019-02-03T05:42:17.150Z,969.80
2019-02-03T05:44:21.331Z,969.81
2019-02-03T05:45:21.548Z,969.85
2019-02-03T05:47:14.617Z,969.91
2019-02-03T05:48:14.852Z,969.96
2019-02-03T05:50:19.022Z,970.03
2019-02-03T05:51:19.258Z,970.05
2019-02-03T05:53:23.425Z,970.04
2019-02-03T05:54:23.660Z,970.10
2019-02-03T05:56:27.802Z,970.13
2019-02-03T05:57:28.035Z,970.16
2019-02-03T05:59:32.198Z,970.17
2019-02-03T06:00:32.435Z,970.18
2019-02-03T06:02:36.585Z,970.27
2019-02-03T06:03:36.818Z,970.31
2019-02-03T06:05:40.983Z,970.39
2019-02-03T06:06:41.219Z,970.45
2019-02-03T06:08:45.360Z,970.48
2019-02-03T06:09:45.599Z,970.53
2019-02-03T06:11:49.935Z,970.57
2019-02-03T06:12:49.930Z,970.60
2019-02-03T06:14:54.089Z,970.62
2019-02-03T06:15:54.323Z,970.65
2019-02-03T06:17:58.464Z,970.67
2019-02-03T06:18:58.697Z,970.67
2019-02-03T06:21:02.855Z,970.73
2019-02-03T06:22:03.086Z,970.73
2019-02-03T06:24:07.227Z,970.78
2019-02-03T06:25:07.461Z,970.79
2019-02-03T06:27:11.622Z,970.67
2019-02-03T06:28:11.853Z,970.75
2019-02-03T06:30:16.022Z,970.70
2019-02-03T06:31:16.262Z,970.75
2019-02-03T06:33:20.398Z,970.79
2019-02-03T06:34:20.627Z,970.76
2019-02-03T06:36:24.787Z,970.81
2019-02-03T06:37:25.018Z,970.87
2019-02-03T06:39:29.244Z,970.79
2019-02-03T06:40:29.394Z,970.80
2019-02-03T06:42:33.659Z,970.86
2019-02-03T06:43:33.793Z,970.89
2019-02-03T06:45:37.953Z,970.90
2019-02-03T06:46:38.185Z,970.96
2019-02-03T06:48:42.332Z,971.00
2019-02-03T06:49:42.568Z,971.04
2019-02-03T06:51:46.728Z,971.12
2019-02-03T06:52:46.959Z,971.06
2019-02-03T06:54:51.104Z,971.19
2019-02-03T06:55:51.336Z,971.19
2019-02-03T06:57:55.499Z,971.21
2019-02-03T06:58:56.941Z,971.28
2019-02-03T07:00:59.891Z,971.23
2019-02-03T07:02:00.125Z,971.23
2019-02-03T07:04:04.273Z,971.27
2019-02-03T07:05:04.505Z,971.32
2019-02-03T07:06:57.595Z,971.39
2019-02-03T07:07:57.828Z,971.46
2019-02-03T07:10:01.971Z,971.43
2019-02-03T07:11:02.202Z,971.52
2019-02-03T07:13:06.363Z,971.47
2019-02-03T07:14:06.596Z,971.49
2019-02-03T07:16:10.775Z,971.52
2019-02-03T07:17:11.023Z,971.53
2019-02-03T07:19:15.142Z,971.52
2019-02-03T07:20:15.380Z,971.58
2019-02-03T07:22:19.537Z,971.64
2019-02-03T07:23:19.770Z,971.67
2019-02-03T07:25:23.909Z,971.77
2019-02-03T07:26:24.142Z,971.72
2019-02-03T07:28:28.298Z,971.73
2019-02-03T07:29:28.531Z,971.72
2019-02-03T07:31:32.694Z,971.77
2019-02-03T07:32:32.928Z,971.77
2019-02-03T07:34:37.065Z,971.80
2019-02-03T07:35:37.298Z,971.79
2019-02-03T07:37:41.461Z,971.79
2019-02-03T07:38:41.693Z,971.84
2019-02-03T07:40:45.834Z,971.79
2019-02-03T07:41:46.070Z,971.75
2019-02-03T07:43:50.230Z,971.80
2019-02-03T07:44:50.468Z,971.82
2019-02-03T07:46:43.559Z,971.88
2019-02-03T07:47:43.794Z,971.84
2019-02-03T07:49:47.934Z,971.94
2019-02-03T07:50:48.167Z,971.95
2019-02-03T07:52:52.334Z,972.00
2019-02-03T07:53:52.567Z,972.00
2019-02-03T07:55:56.707Z,972.07
2019-02-03T07:56:56.937Z,972.08
2019-02-03T07:59:01.110Z,972.10
2019-02-03T08:00:01.345Z,972.11
2019-02-03T08:02:05.507Z,972.19
2019-02-03T08:03:05.741Z,972.18
2019-02-03T08:05:09.879Z,972.22
2019-02-03T08:06:10.118Z,972.23
2019-02-03T08:08:14.274Z,972.24
2019-02-03T08:09:14.509Z,972.31
2019-02-03T08:11:18.649Z,972.33
2019-02-03T08:12:18.881Z,972.39
2019-02-03T08:14:23.043Z,972.37
2019-02-03T08:15:23.274Z,972.39
2019-02-03T08:17:27.456Z,972.48
2019-02-03T08:18:27.681Z,972.44
2019-02-03T08:20:31.818Z,972.53
2019-02-03T08:21:32.051Z,972.52
2019-02-03T08:23:36.213Z,972.34
2019-02-03T08:24:36.446Z,972.48
2019-02-03T08:26:29.509Z,972.54
2019-02-03T08:27:29.743Z,972.62
2019-02-03T08:29:33.905Z,972.64
2019-02-03T08:30:34.139Z,972.66
2019-02-03T08:32:38.305Z,972.73
2019-02-03T08:33:38.538Z,972.76
2019-02-03T08:35:42.674Z,972.82
2019-02-03T08:36:42.907Z,972.84
2019-02-03T08:38:47.074Z,972.87
2019-02-03T08:39:47.302Z,972.90
2019-02-03T08:41:51.439Z,972.99
2019-02-03T08:42:51.673Z,973.00
2019-02-03T08:44:55.836Z,972.97
2019-02-03T08:45:56.067Z,973.04
2019-02-03T08:48:00.230Z,973.06
2019-02-03T08:49:00.464Z,973.08
2019-02-03T08:51:04.603Z,973.15
2019-02-03T08:52:04.835Z,973.21
2019-02-03T08:54:08.998Z,973.28
2019-02-03T08:55:09.231Z,973.23
2019-02-03T08:57:02.306Z,973.34
2019-02-03T08:58:02.545Z,973.38
2019-02-03T09:00:06.708Z,973.37
2019-02-03T09:01:06.941Z,973.41
2019-02-03T09:03:11.106Z,973.47
2019-02-03T09:04:11.342Z,973.47
2019-02-03T09:06:15.480Z,973.45
2019-02-03T09:07:15.710Z,973.48
2019-02-03T09:09:19.874Z,973.54
2019-02-03T09:10:20.114Z,973.55
2019-02-03T09:12:24.246Z,973.58
2019-02-03T09:13:24.478Z,973.60
2019-02-03T09:15:28.638Z,973.69
2019-02-03T09:16:28.871Z,973.66
2019-02-03T09:18:34.971Z,973.73
2019-02-03T09:19:33.265Z,973.67
2019-02-03T09:21:37.404Z,973.70
2019-02-03T09:22:40.065Z,973.77
2019-02-03T09:24:41.794Z,973.83
2019-02-03T09:25:42.025Z,973.77
2019-02-03T09:27:46.164Z,973.91
2019-02-03T09:28:46.397Z,973.82
2019-02-03T09:30:50.557Z,973.82
2019-02-03T09:31:50.792Z,973.87
2019-02-03T09:33:54.976Z,973.79
2019-02-03T09:34:55.199Z,973.87
2019-02-03T09:36:48.270Z,973.89
2019-02-03T09:37:48.503Z,973.86
2019-02-03T09:39:52.712Z,973.83
2019-02-03T09:40:59.795Z,973.84
2019-02-03T09:42:57.033Z,973.87
2019-02-03T09:43:57.265Z,973.83
2019-02-03T09:46:01.424Z,973.85
2019-02-03T09:47:01.664Z,973.87
2019-02-03T09:49:05.804Z,973.89
2019-02-03T09:50:06.040Z,973.88
2019-02-03T09:52:10.204Z,973.95
2019-02-03T09:53:10.438Z,973.91
2019-02-03T09:55:14.603Z,973.95
2019-02-03T09:56:14.921Z,974.00
2019-02-03T09:58:18.978Z,973.96
2019-02-03T09:59:19.210Z,973.99
2019-02-03T10:01:23.375Z,973.97
2019-02-03T10:02:23.606Z,973.91
2019-02-03T10:04:27.788Z,973.99
2019-02-03T10:05:28.028Z,973.98
2019-02-03T10:07:32.188Z,973.98
2019-02-03T10:08:40.379Z,974.06
2019-02-03T10:10:36.584Z,974.05
2019-02-03T10:11:36.819Z,974.05
2019-02-03T10:13:40.955Z,974.14
2019-02-03T10:14:41.191Z,974.08
2019-02-03T10:16:34.279Z,974.14
2019-02-03T10:17:34.513Z,974.15
2019-02-03T10:19:38.650Z,974.16
2019-02-03T10:20:38.886Z,974.14
2019-02-03T10:22:43.048Z,974.15
2019-02-03T10:23:43.279Z,974.05
2019-02-03T10:25:47.437Z,974.17
2019-02-03T10:26:47.673Z,974.05
2019-02-03T10:28:51.817Z,974.19
2019-02-03T10:29:52.067Z,974.17
2019-02-03T10:31:56.213Z,974.17
2019-02-03T10:32:56.468Z,974.23
2019-02-03T10:35:00.586Z,974.29
2019-02-03T10:36:00.820Z,974.19
2019-02-03T10:38:04.985Z,974.27
2019-02-03T10:39:05.220Z,974.26
2019-02-03T10:41:09.384Z,974.23
2019-02-03T10:42:09.618Z,974.24
2019-02-03T10:44:13.758Z,974.19
2019-02-03T10:45:13.992Z,974.29
2019-02-03T10:47:07.083Z,974.27
2019-02-03T10:48:07.318Z,974.10
2019-02-03T10:50:11.465Z,974.12
2019-02-03T10:51:11.699Z,974.26
2019-02-03T10:53:15.865Z,974.29
2019-02-03T10:54:16.099Z,974.33
2019-02-03T10:56:20.266Z,974.40
2019-02-03T10:57:20.499Z,974.30
2019-02-03T10:59:24.643Z,974.25
2019-02-03T11:00:24.879Z,974.31
2019-02-03T11:02:29.046Z,974.41
2019-02-03T11:03:29.281Z,974.39
2019-02-03T11:05:33.427Z,974.38
2019-02-03T11:06:33.658Z,974.33
2019-02-03T11:08:37.822Z,974.35
2019-02-03T11:09:38.059Z,974.37
2019-02-03T11:11:42.227Z,974.44
2019-02-03T11:12:42.466Z,974.48
2019-02-03T11:14:46.607Z,974.35
2019-02-03T11:15:46.840Z,974.42
2019-02-03T11:17:51.003Z,974.49
2019-02-03T11:18:51.243Z,974.50
2019-02-03T11:20:55.412Z,974.49
2019-02-03T11:21:55.646Z,974.55
2019-02-03T11:23:59.787Z,974.57
2019-02-03T11:25:00.020Z,974.65
2019-02-03T11:26:53.109Z,974.50
2019-02-03T11:27:53.343Z,974.63
2019-02-03T11:29:57.482Z,974.59
2019-02-03T11:30:57.717Z,974.71
2019-02-03T11:33:08.506Z,974.67
2019-02-03T11:34:02.119Z,974.60
2019-02-03T11:36:06.276Z,974.70
2019-02-03T11:37:06.510Z,974.72
2019-02-03T11:39:10.650Z,974.75
2019-02-03T11:40:10.887Z,974.75
2019-02-03T11:42:15.051Z,974.80
2019-02-03T11:43:15.287Z,974.81
2019-02-03T11:45:19.433Z,974.84
2019-02-03T11:46:19.665Z,974.79
2019-02-03T11:48:23.831Z,974.82
2019-02-03T11:49:24.063Z,974.83
2019-02-03T11:51:28.389Z,974.83
2019-02-03T11:52:28.642Z,974.85
2019-02-03T11:54:32.787Z,974.80
2019-02-03T11:55:33.151Z,974.78
2019-02-03T11:57:37.329Z,974.87
2019-02-03T11:58:37.692Z,974.90
2019-02-03T12:00:41.860Z,974.84
2019-02-03T12:01:42.075Z,974.90
2019-02-03T12:03:46.395Z,974.89
2019-02-03T12:04:46.743Z,974.89
2019-02-03T12:06:39.962Z,974.92
2019-02-03T12:07:40.325Z,974.91
2019-02-03T12:09:44.536Z,974.88
2019-02-03T12:10:44.904Z,974.94
2019-02-03T12:12:49.287Z,975.00
2019-02-03T12:13:49.443Z,975.01
2019-02-03T12:15:53.588Z,975.03
2019-02-03T12:16:53.944Z,974.96
2019-02-03T12:18:58.217Z,974.99
2019-02-03T12:19:58.620Z,974.99
2019-02-03T12:22:03.959Z,974.96
2019-02-03T12:23:04.256Z,975.03
2019-02-03T12:25:08.398Z,975.03
2019-02-03T12:26:08.760Z,975.05
2019-02-03T12:28:13.131Z,974.99
2019-02-03T12:29:13.126Z,975.03
2019-02-03T12:31:17.364Z,975.05
2019-02-03T12:32:17.647Z,975.00
2019-02-03T12:34:21.901Z,975.09
2019-02-03T12:35:22.195Z,975.11
2019-02-03T12:37:15.292Z,975.15
2019-02-03T12:38:15.582Z,975.16
2019-02-03T12:40:19.889Z,975.11
2019-02-03T12:41:20.215Z,975.16
2019-02-03T12:43:24.548Z,975.17
2019-02-03T12:44:24.835Z,975.18
2019-02-03T12:46:29.007Z,975.20
2019-02-03T12:47:29.382Z,975.17
2019-02-03T12:49:33.708Z,975.24
2019-02-03T12:50:34.088Z,975.19
2019-02-03T12:52:38.253Z,975.29
2019-02-03T12:53:38.491Z,975.25
2019-02-03T12:55:44.728Z,975.33
2019-02-03T12:56:42.890Z,975.30
2019-02-03T12:58:47.275Z,975.31
2019-02-03T12:59:47.273Z,975.34
2019-02-03T13:01:51.491Z,975.31
2019-02-03T13:02:51.823Z,975.34
2019-02-03T13:04:56.060Z,975.43
2019-02-03T13:05:56.471Z,975.39
2019-02-03T13:08:00.502Z,975.49
2019-02-03T13:09:00.816Z,975.51
2019-02-03T13:11:04.990Z,975.54
2019-02-03T13:12:05.256Z,975.53
2019-02-03T13:14:09.534Z,975.53
2019-02-03T13:15:09.869Z,975.48
2019-02-03T13:17:02.937Z,975.61
2019-02-03T13:18:03.168Z,975.53
2019-02-03T13:20:07.324Z,975.63
2019-02-03T13:21:07.556Z,975.65
2019-02-03T13:23:11.861Z,975.64
2019-02-03T13:24:12.201Z,975.72
2019-02-03T13:26:16.462Z,975.75
2019-02-03T13:27:16.843Z,975.78
2019-02-03T13:29:20.919Z,975.86
2019-02-03T13:30:21.209Z,975.88
2019-02-03T13:32:25.355Z,975.90
2019-02-03T13:33:25.590Z,975.92
2019-02-03T13:35:30.761Z,975.91
2019-02-03T13:36:31.116Z,975.90
2019-02-03T13:38:35.330Z,976.04
2019-02-03T13:39:35.562Z,976.05
2019-02-03T13:41:39.700Z,976.11
2019-02-03T13:42:39.930Z,976.10
2019-02-03T13:44:44.095Z,976.11
2019-02-03T13:45:45.072Z,976.12
2019-02-03T13:47:48.473Z,976.08
2019-02-03T13:48:48.705Z,976.05
2019-02-03T13:50:54.746Z,975.96
2019-02-03T13:51:53.116Z,976.04
2019-02-03T13:53:57.286Z,976.11
2019-02-03T13:54:57.518Z,976.16
2019-02-03T13:56:50.590Z,976.14
2019-02-03T13:57:50.822Z,976.17
2019-02-03T13:59:54.982Z,976.24
2019-02-03T14:00:55.216Z,976.17
2019-02-03T14:02:59.479Z,976.29
2019-02-03T14:03:59.590Z,976.23
2019-02-03T14:06:03.751Z,976.18
2019-02-03T14:07:03.984Z,976.38
2019-02-03T14:09:08.144Z,976.37
2019-02-03T14:10:08.377Z,976.37
2019-02-03T14:12:12.516Z,976.42
2019-02-03T14:13:12.749Z,976.47
2019-02-03T14:15:16.907Z,976.43
2019-02-03T14:16:17.140Z,976.51
2019-02-03T14:18:21.277Z,976.59
2019-02-03T14:19:21.513Z,976.55
2019-02-03T14:21:25.671Z,976.54
2019-02-03T14:22:25.906Z,976.60
2019-02-03T14:24:32.955Z,976.60
2019-02-03T14:25:30.298Z,976.60
2019-02-03T14:27:34.438Z,976.61
2019-02-03T14:28:34.672Z,976.63
2019-02-03T14:30:40.860Z,976.50
2019-02-03T14:31:39.119Z,976.70
2019-02-03T14:33:43.238Z,976.72
2019-02-03T14:34:43.469Z,976.76
2019-02-03T14:36:36.559Z,976.91
2019-02-03T14:37:36.792Z,976.86
2019-02-03T14:39:40.962Z,976.87
2019-02-03T14:40:41.190Z,976.93
2019-02-03T14:42:48.052Z,976.93
2019-02-03T14:43:45.561Z,976.94
2019-02-03T14:45:49.722Z,976.94
2019-02-03T14:46:49.957Z,976.98
2019-02-03T14:48:54.097Z,976.92
2019-02-03T14:49:54.333Z,976.99
2019-02-03T14:51:58.491Z,977.03
2019-02-03T14:52:58.805Z,977.03
2019-02-03T14:55:03.151Z,977.04
2019-02-03T14:56:03.235Z,976.90
2019-02-03T14:58:07.372Z,977.02
2019-02-03T14:59:07.606Z,976.99
2019-02-03T15:01:11.765Z,977.01
2019-02-03T15:02:11.998Z,977.04
2019-02-03T15:04:16.140Z,976.92
2019-02-03T15:05:16.374Z,977.03
2019-02-03T15:07:09.459Z,977.05
2019-02-03T15:08:09.714Z,977.07
2019-02-03T15:10:13.836Z,977.15
2019-02-03T15:11:14.065Z,977.17
2019-02-03T15:13:18.223Z,977.21
2019-02-03T15:14:18.457Z,977.25
2019-02-03T15:16:22.619Z,977.28
2019-02-03T15:17:22.851Z,977.35
2019-02-03T15:19:26.992Z,977.38
2019-02-03T15:20:27.223Z,977.40
2019-02-03T15:22:31.388Z,977.38
2019-02-03T15:23:31.615Z,977.39
2019-02-03T15:25:35.817Z,977.46
2019-02-03T15:26:36.048Z,977.43
2019-02-03T15:28:40.188Z,977.48
2019-02-03T15:29:40.423Z,977.51
2019-02-03T15:31:44.582Z,977.53
2019-02-03T15:32:44.815Z,977.59
2019-02-03T15:34:48.958Z,977.55
2019-02-03T15:35:49.195Z,977.66
2019-02-03T15:37:53.352Z,977.66
2019-02-03T15:38:53.590Z,977.67
2019-02-03T15:40:57.752Z,977.70
2019-02-03T15:41:57.983Z,977.73
2019-02-03T15:44:02.119Z,977.74
2019-02-03T15:45:02.354Z,977.76
2019-02-03T15:46:55.445Z,977.79
2019-02-03T15:47:56.512Z,977.81
2019-02-03T15:50:00.464Z,977.78
2019-02-03T15:51:00.699Z,977.83
2019-02-03T15:53:04.874Z,977.83
2019-02-03T15:54:05.107Z,977.93
2019-02-03T15:56:10.769Z,977.88
2019-02-03T15:57:11.002Z,977.90
2019-02-03T15:59:15.147Z,977.97
2019-02-03T16:00:15.381Z,977.94
2019-02-03T16:02:19.552Z,977.95
2019-02-03T16:03:19.777Z,977.97
2019-02-03T16:05:23.930Z,977.95
2019-02-03T16:06:24.171Z,978.03
2019-02-03T16:08:28.335Z,978.04
2019-02-03T16:09:28.570Z,978.02
2019-02-03T16:11:32.739Z,978.01
2019-02-03T16:12:32.971Z,978.10
2019-02-03T16:14:37.611Z,978.07
2019-02-03T16:15:37.854Z,978.13
2019-02-03T16:17:42.020Z,978.16
2019-02-03T16:18:42.248Z,978.18
2019-02-03T16:20:46.390Z,978.23
2019-02-03T16:21:46.624Z,978.21
2019-02-03T16:23:50.804Z,978.27
2019-02-03T16:24:51.038Z,978.24
2019-02-03T16:26:44.133Z,978.20
2019-02-03T16:27:44.368Z,978.26
2019-02-03T16:29:48.541Z,978.36
2019-02-03T16:30:48.757Z,978.34
2019-02-03T16:32:52.925Z,978.31
2019-02-03T16:33:53.159Z,978.43
2019-02-03T16:35:57.299Z,978.47
2019-02-03T16:36:57.532Z,978.48
2019-02-03T16:39:01.696Z,978.48
2019-02-03T16:40:01.931Z,978.43
2019-02-03T16:42:06.097Z,978.61
2019-02-03T16:43:06.331Z,978.63
2019-02-03T16:45:10.475Z,978.65
2019-02-03T16:46:10.703Z,978.59
2019-02-03T16:48:14.904Z,978.73
2019-02-03T16:49:16.720Z,978.78
2019-02-03T16:51:19.749Z,978.78
2019-02-03T16:52:19.981Z,978.86
2019-02-03T16:54:24.648Z,978.88
2019-02-03T16:55:24.881Z,978.95
2019-02-03T16:57:29.043Z,978.95
2019-02-03T16:58:29.276Z,979.00
2019-02-03T17:00:33.422Z,979.07
2019-02-03T17:01:33.661Z,979.03
2019-02-03T17:03:37.821Z,979.12
2019-02-03T17:04:38.052Z,979.13
2019-02-03T17:06:31.125Z,979.15
2019-02-03T17:07:31.359Z,979.20
2019-02-03T17:09:35.527Z,979.21
2019-02-03T17:10:35.789Z,979.25
2019-02-03T17:12:39.939Z,979.30
2019-02-03T17:13:40.175Z,979.26
2019-02-03T17:15:44.315Z,979.31
2019-02-03T17:16:44.549Z,979.36
2019-02-03T17:18:48.712Z,979.37
2019-02-03T17:19:48.943Z,979.42
2019-02-03T17:21:53.087Z,979.38
2019-02-03T17:22:53.314Z,979.37
2019-02-03T17:24:58.502Z,979.43
2019-02-03T17:25:58.737Z,979.44
2019-02-03T17:28:03.394Z,979.45
2019-02-03T17:29:03.630Z,979.46
2019-02-03T17:31:07.771Z,979.47
2019-02-03T17:32:08.006Z,979.48
2019-02-03T17:34:12.170Z,979.55
2019-02-03T17:35:12.407Z,979.54
2019-02-03T17:37:05.474Z,979.63
2019-02-03T17:38:05.707Z,979.62
2019-02-03T17:40:09.968Z,979.67
2019-02-03T17:41:10.142Z,979.67
2019-02-03T17:43:14.329Z,979.75
2019-02-03T17:44:19.713Z,979.76
2019-02-03T17:46:18.734Z,979.85
2019-02-03T17:47:19.020Z,979.85
2019-02-03T17:49:23.190Z,979.86
2019-02-03T17:50:23.428Z,979.90
2019-02-03T17:52:38.306Z,979.91
2019-02-03T17:53:27.813Z,979.92
2019-02-03T17:55:31.991Z,979.91
2019-02-03T17:56:32.266Z,979.92
2019-02-03T17:58:37.475Z,980.08
2019-02-03T17:59:37.740Z,980.09
2019-02-03T18:01:41.886Z,980.12
2019-02-03T18:02:42.121Z,980.18
2019-02-03T18:04:46.790Z,980.23
2019-02-03T18:05:47.018Z,980.27
2019-02-03T18:07:51.692Z,980.28
2019-02-03T18:08:52.084Z,980.24
2019-02-03T18:10:56.451Z,980.33
2019-02-03T18:11:56.456Z,980.33
2019-02-03T18:14:00.668Z,980.34
2019-02-03T18:15:00.934Z,980.34
2019-02-03T18:16:54.034Z,980.34
2019-02-03T18:17:54.258Z,980.35
2019-02-03T18:19:59.568Z,980.29
2019-02-03T18:20:59.891Z,980.34
2019-02-03T18:23:04.052Z,980.39
2019-02-03T18:24:04.330Z,980.42
2019-02-03T18:26:08.499Z,980.44
2019-02-03T18:27:08.850Z,980.47
2019-02-03T18:29:12.915Z,980.57
2019-02-03T18:30:13.151Z,980.56
2019-02-03T18:32:17.358Z,980.58
2019-02-03T18:33:17.586Z,980.65
2019-02-03T18:35:21.753Z,980.64
2019-02-03T18:36:21.988Z,980.67
2019-02-03T18:38:27.149Z,980.65
2019-02-03T18:39:27.374Z,980.68
2019-02-03T18:41:31.551Z,980.68
2019-02-03T18:42:31.776Z,980.69
2019-02-03T18:44:36.407Z,980.68
2019-02-03T18:45:36.176Z,980.71
2019-02-03T18:47:40.314Z,980.80
2019-02-03T18:48:40.553Z,980.76
2019-02-03T18:50:44.734Z,980.71
2019-02-03T18:51:44.962Z,980.72
2019-02-03T18:53:49.109Z,980.81
2019-02-03T18:54:49.400Z,980.84
2019-02-03T18:56:42.496Z,980.85
2019-02-03T18:57:42.726Z,980.87
2019-02-03T18:59:46.942Z,980.93
2019-02-03T19:00:47.175Z,980.95
2019-02-03T19:02:51.315Z,981.00
2019-02-03T19:03:51.548Z,981.04
2019-02-03T19:05:55.718Z,981.06